Time;durP1;ratioP1;P1;durP2;ratioP2;P2;SDS_P1;SDS_P2;PMS_P1;PMS_P2;Temp;Humidity;BMP_temperature;BMP_pressure;BME280_temperature;BME280_humidity;BME280_pressure;Samples;Min_cycle;Max_cycle;Signal;HPM_P1;HPM_P2
2021/08/09 00:00:40;;;;;;;2.92;1.05;;;;;;;11.27;50.43;95572.81;5008794;28;20053;-62
2021/08/09 00:03:05;;;;;;;2.45;1.40;;;;;;;11.38;48.08;95580.34;5007935;28;20038;-62
2021/08/09 00:05:35;;;;;;;4.53;1.65;;;;;;;11.24;48.16;95576.69;5005355;28;20030;-61
2021/08/09 00:08:01;;;;;;;1.65;1.55;;;;;;;10.99;49.94;95571.56;5005741;28;20046;-61
2021/08/09 00:10:27;;;;;;;3.70;1.63;;;;;;;11.04;50.06;95571.03;5007848;28;20044;-61
2021/08/09 00:12:54;;;;;;;1.33;1.20;;;;;;;10.97;48.95;95575.41;5007545;28;20033;-62
2021/08/09 00:15:19;;;;;;;2.92;1.35;;;;;;;11.12;49.76;95568.31;5007726;28;20045;-62
2021/08/09 00:17:45;;;;;;;2.83;1.77;;;;;;;10.58;49.74;95566.63;5006950;28;20034;-62
2021/08/09 00:20:11;;;;;;;2.33;1.17;;;;;;;11.04;48.62;95568.34;5007310;28;20046;-62
2021/08/09 00:22:37;;;;;;;2.08;1.17;;;;;;;11.25;48.13;95566.81;5007486;28;20061;-62
2021/08/09 00:25:03;;;;;;;2.63;1.33;;;;;;;11.28;48.15;95565.66;5007243;28;20403;-62
2021/08/09 00:27:28;;;;;;;3.40;1.30;;;;;;;11.11;48.39;95568.47;5007661;28;20025;-61
2021/08/09 00:29:53;;;;;;;4.90;1.40;;;;;;;11.02;48.57;95570.41;5008359;28;20042;-61
2021/08/09 00:32:19;;;;;;;3.17;1.52;;;;;;;10.98;48.69;95574.44;5007021;28;20697;-61
2021/08/09 00:34:44;;;;;;;2.75;1.75;;;;;;;10.44;50.38;95566.38;5007794;28;20471;-61
2021/08/09 00:37:10;;;;;;;6.35;1.50;;;;;;;11.06;48.96;95560.19;5006870;28;20606;-61
2021/08/09 00:39:35;;;;;;;4.30;1.40;;;;;;;10.93;48.94;95551.00;5007599;28;20077;-61
2021/08/09 00:42:01;;;;;;;2.13;1.20;;;;;;;11.08;48.87;95553.66;5007578;28;20034;-61
2021/08/09 00:44:26;;;;;;;4.75;2.05;;;;;;;10.83;49.31;95556.59;4990265;28;20069;-62
2021/08/09 00:46:51;;;;;;;1.70;1.15;;;;;;;10.97;49.24;95554.09;5008393;28;20038;-62
2021/08/09 00:49:17;;;;;;;8.60;5.30;;;;;;;10.86;49.56;95552.72;5008035;28;20046;-62
2021/08/09 00:51:42;;;;;;;2.42;1.20;;;;;;;10.77;49.60;95556.47;5007443;28;20045;-61
2021/08/09 00:54:10;;;;;;;2.47;1.50;;;;;;;10.90;49.22;95559.34;5008573;28;20034;-61
2021/08/09 00:56:35;;;;;;;1.63;1.27;;;;;;;11.09;48.64;95555.34;5007281;28;20048;-61
2021/08/09 00:59:00;;;;;;;2.85;1.08;;;;;;;10.94;49.31;95554.47;5008649;28;20034;-61
2021/08/09 01:01:26;;;;;;;6.20;1.58;;;;;;;10.77;49.56;95553.81;5002121;28;20038;-62
2021/08/09 01:03:51;;;;;;;2.15;1.20;;;;;;;10.78;50.16;95552.81;5004444;28;20050;-62
2021/08/09 01:06:17;;;;;;;1.98;1.25;;;;;;;10.86;49.79;95564.22;5007617;28;20107;-61
2021/08/09 01:08:45;;;;;;;2.88;1.27;;;;;;;10.74;50.15;95557.66;5006477;28;20042;-62
2021/08/09 01:11:19;;;;;;;2.75;1.30;;;;;;;10.59;50.48;95560.28;5007981;28;20032;-62
2021/08/09 01:13:52;;;;;;;1.73;1.10;;;;;;;10.65;50.39;95558.75;5006129;28;20061;-62
2021/08/09 01:16:26;;;;;;;1.13;1.10;;;;;;;10.85;50.64;95551.88;5008755;28;20574;-62
2021/08/09 01:18:52;;;;;;;68.15;31.08;;;;;;;10.87;50.53;95557.88;4995106;28;20025;-62
2021/08/09 01:21:18;;;;;;;42.00;19.02;;;;;;;10.90;49.87;95566.50;5009969;28;20033;-62
2021/08/09 01:24:03;;;;;;;53.90;28.75;;;;;;;10.50;50.60;95562.19;5009508;28;20038;-61
2021/08/09 01:26:38;;;;;;;11.52;5.80;;;;;;;10.76;50.57;95560.97;4990287;28;20471;-61
2021/08/09 01:29:20;;;;;;;7.80;4.43;;;;;;;10.90;50.63;95558.50;5009628;28;20053;-61
2021/08/09 01:31:47;;;;;;;3.80;2.85;;;;;;;11.07;50.70;95557.34;5011017;28;20056;-62
2021/08/09 01:34:13;;;;;;;3.55;2.20;;;;;;;11.13;51.09;95561.97;5010203;28;20026;-62
2021/08/09 01:36:44;;;;;;;3.38;1.67;;;;;;;11.34;50.59;95560.41;5009442;28;20096;-62
2021/08/09 01:39:10;;;;;;;6.10;2.50;;;;;;;11.37;51.00;95565.38;4993975;28;20033;-62
2021/08/09 01:41:36;;;;;;;4.55;2.20;;;;;;;11.42;50.67;95572.00;5007088;28;20046;-62
2021/08/09 01:44:02;;;;;;;3.45;2.20;;;;;;;11.48;50.46;95571.25;5008289;28;20037;-62
2021/08/09 01:46:27;;;;;;;2.53;1.40;;;;;;;11.60;49.26;95576.94;5011075;28;20076;-62
2021/08/09 01:48:53;;;;;;;5.05;2.00;;;;;;;11.52;49.41;95570.69;5009223;28;20084;-62
2021/08/09 01:51:18;;;;;;;2.85;1.67;;;;;;;11.64;49.46;95578.22;5011292;28;20018;-62
2021/08/09 01:53:44;;;;;;;3.60;1.77;;;;;;;11.62;49.37;95574.91;5008807;28;20049;-62
2021/08/09 01:56:10;;;;;;;3.95;1.77;;;;;;;11.63;49.77;95576.59;5010642;28;20048;-62
2021/08/09 01:58:35;;;;;;;5.53;2.33;;;;;;;11.50;50.37;95572.72;5010445;28;20057;-62
2021/08/09 02:01:01;;;;;;;4.18;1.50;;;;;;;11.59;49.25;95576.09;4993258;28;20495;-62
2021/08/09 02:03:27;;;;;;;2.65;1.98;;;;;;;11.64;49.36;95583.56;5010028;28;20048;-62
2021/08/09 02:05:52;;;;;;;3.90;2.75;;;;;;;11.70;49.02;95587.31;5008470;28;20468;-62
2021/08/09 02:08:18;;;;;;;5.57;2.50;;;;;;;11.68;49.31;95586.66;5010561;28;20054;-62
2021/08/09 02:10:44;;;;;;;7.00;3.85;;;;;;;11.70;49.44;95588.13;5010804;28;20533;-62
2021/08/09 02:13:18;;;;;;;2.45;2.13;;;;;;;11.70;49.17;95588.13;5009066;28;20046;-62
2021/08/09 02:16:03;;;;;;;2.60;1.80;;;;;;;11.65;48.38;95587.88;5010257;28;20088;-61
2021/08/09 02:18:36;;;;;;;2.70;1.92;;;;;;;11.64;50.40;95597.72;5004697;28;20040;-61
2021/08/09 02:21:04;;;;;;;10.93;6.00;;;;;;;11.59;48.04;95594.78;5007954;28;20132;-62
2021/08/09 02:23:53;;;;;;;5.65;2.13;;;;;;;11.62;48.68;95602.41;5010964;28;20044;-62
2021/08/09 02:26:34;;;;;;;8.05;4.40;;;;;;;11.63;49.36;95596.06;5008160;28;20038;-62
2021/08/09 02:29:29;;;;;;;10.57;4.40;;;;;;;11.79;48.90;95596.06;5010088;28;20049;-62
2021/08/09 02:31:55;;;;;;;18.90;8.88;;;;;;;11.67;48.70;95601.03;5006552;28;20042;-62
2021/08/09 02:34:21;;;;;;;21.67;11.98;;;;;;;11.71;48.45;95589.81;5008650;28;20061;-61
2021/08/09 02:36:46;;;;;;;8.95;4.28;;;;;;;11.73;49.11;95589.63;5008467;28;20045;-61
2021/08/09 02:39:13;;;;;;;61.67;30.77;;;;;;;11.75;48.93;95580.41;5008743;28;20383;-61
2021/08/09 02:41:39;;;;;;;14.40;8.50;;;;;;;11.57;48.30;95577.31;5007599;28;20062;-61
2021/08/09 02:44:05;;;;;;;17.70;8.63;;;;;;;11.56;49.21;95576.47;4988016;28;20061;-61
2021/08/09 02:46:31;;;;;;;6.72;3.28;;;;;;;11.73;48.68;95576.28;4988444;28;20029;-62
2021/08/09 02:48:56;;;;;;;11.20;6.38;;;;;;;11.76;49.03;95582.06;5008004;28;20467;-62
2021/08/09 02:51:22;;;;;;;4.03;2.20;;;;;;;11.90;47.73;95592.91;5008744;28;20037;-62
2021/08/09 02:53:47;;;;;;;3.28;1.27;;;;;;;11.94;47.75;95591.53;4972114;28;20507;-62
2021/08/09 02:56:14;;;;;;;5.05;1.63;;;;;;;12.05;47.47;95590.19;5008027;28;20459;-62
2021/08/09 02:58:39;;;;;;;1.27;1.13;;;;;;;12.17;46.90;95589.75;5009387;28;20038;-62
2021/08/09 03:01:04;;;;;;;3.70;1.38;;;;;;;12.09;47.20;95586.16;5009452;28;20104;-62
2021/08/09 03:03:30;;;;;;;8.88;4.57;;;;;;;11.94;47.58;95588.03;5007665;28;20026;-62
2021/08/09 03:05:57;;;;;;;6.63;3.38;;;;;;;11.83;48.82;95589.34;5008011;28;20030;-61
2021/08/09 03:08:23;;;;;;;3.77;2.50;;;;;;;11.86;48.87;95589.78;5009233;28;20086;-62
2021/08/09 03:10:48;;;;;;;5.38;2.00;;;;;;;11.89;48.98;95596.56;5009455;28;20811;-62
2021/08/09 03:13:13;;;;;;;2.63;1.70;;;;;;;11.95;48.64;95589.66;5007918;28;20038;-62
2021/08/09 03:15:41;;;;;;;3.38;1.90;;;;;;;11.93;49.41;95581.84;5008896;28;20034;-61
2021/08/09 03:18:06;;;;;;;2.70;1.50;;;;;;;11.98;48.81;95586.63;5008008;28;20030;-62
2021/08/09 03:20:32;;;;;;;1.85;1.55;;;;;;;11.97;49.18;95588.47;5009215;28;20088;-62
2021/08/09 03:22:58;;;;;;;2.90;1.55;;;;;;;12.02;48.45;95594.06;5009658;28;20034;-62
2021/08/09 03:25:23;;;;;;;2.55;1.60;;;;;;;11.95;49.36;95595.00;5009072;28;20970;-62
2021/08/09 03:27:49;;;;;;;2.85;1.55;;;;;;;11.97;49.15;95596.47;5007637;28;20065;-61
2021/08/09 03:30:16;;;;;;;4.22;1.27;;;;;;;12.04;48.28;95596.56;5009928;28;20252;-61
2021/08/09 03:32:42;;;;;;;10.77;5.60;;;;;;;11.94;48.75;95594.19;5007542;28;20128;-62
2021/08/09 03:35:07;;;;;;;4.85;2.65;;;;;;;11.90;48.82;95592.91;5009627;28;20494;-62
2021/08/09 03:37:33;;;;;;;3.30;1.85;;;;;;;11.97;48.12;95593.00;5009102;28;20034;-62
2021/08/09 03:39:58;;;;;;;9.02;4.55;;;;;;;11.85;48.84;95588.13;5008728;28;20538;-62
2021/08/09 03:42:24;;;;;;;5.63;2.85;;;;;;;11.86;49.18;95589.78;5007855;28;20125;-62
2021/08/09 03:44:49;;;;;;;4.68;2.40;;;;;;;11.74;48.02;95591.28;5007562;28;20038;-61
2021/08/09 03:47:15;;;;;;;29.92;16.45;;;;;;;11.75;48.53;95598.25;5008887;28;20022;-62
2021/08/09 03:49:40;;;;;;;29.42;16.38;;;;;;;11.56;48.77;95592.47;5008532;28;20038;-62
2021/08/09 03:52:06;;;;;;;11.25;6.72;;;;;;;11.59;49.65;95594.78;5008777;28;20479;-61
2021/08/09 03:54:31;;;;;;;8.13;4.60;;;;;;;11.67;49.01;95593.03;5009333;28;20038;-61
2021/08/09 03:56:57;;;;;;;14.30;8.38;;;;;;;11.67;49.10;95593.88;5008586;28;20045;-61
2021/08/09 03:59:22;;;;;;;4.40;2.83;;;;;;;11.66;48.77;95588.72;5009387;28;20029;-61
2021/08/09 04:01:49;;;;;;;10.70;6.38;;;;;;;11.59;49.86;95586.78;5008652;28;20471;-62
2021/08/09 04:04:14;;;;;;;3.92;1.92;;;;;;;11.40;49.36;95585.50;5007190;28;20038;-61
2021/08/09 04:06:40;;;;;;;1.77;1.40;;;;;;;11.55;48.91;95580.16;5008894;28;20037;-61
2021/08/09 04:09:08;;;;;;;6.13;2.60;;;;;;;11.52;49.54;95591.19;5008362;28;20064;-62
2021/08/09 04:11:34;;;;;;;6.50;4.20;;;;;;;11.39;50.08;95587.34;5008868;28;20479;-62
2021/08/09 04:14:01;;;;;;;3.05;1.90;;;;;;;11.38;50.48;95583.03;5009459;28;20737;-62
2021/08/09 04:16:27;;;;;;;2.38;1.50;;;;;;;11.34;50.38;95589.72;5008416;28;20061;-62
2021/08/09 04:18:52;;;;;;;4.15;1.60;;;;;;;11.22;50.65;95580.53;5008751;28;20026;-62
2021/08/09 04:21:18;;;;;;;2.75;1.60;;;;;;;11.21;50.50;95573.53;5008947;28;20037;-61
2021/08/09 04:23:43;;;;;;;3.03;1.48;;;;;;;11.19;50.01;95572.91;5003890;28;20033;-61
2021/08/09 04:26:08;;;;;;;2.67;1.50;;;;;;;11.25;49.70;95564.16;5009019;28;20034;-62
2021/08/09 04:28:34;;;;;;;3.85;1.60;;;;;;;11.24;49.77;95563.34;5008391;28;20100;-62
2021/08/09 04:30:59;;;;;;;3.28;1.80;;;;;;;11.17;49.98;95561.59;5009010;28;20049;-62
2021/08/09 04:33:25;;;;;;;3.33;1.58;;;;;;;11.17;50.17;95569.59;5008311;28;20053;-62
2021/08/09 04:35:50;;;;;;;2.70;1.60;;;;;;;11.17;49.68;95573.09;5007062;28;20041;-62
2021/08/09 04:38:16;;;;;;;4.75;1.75;;;;;;;11.18;49.85;95573.94;5008789;28;20033;-62
2021/08/09 04:40:41;;;;;;;3.08;1.70;;;;;;;11.13;50.20;95577.94;5008568;28;20495;-62
2021/08/09 04:43:06;;;;;;;1.38;1.27;;;;;;;11.16;50.06;95583.94;5008085;28;20065;-62
2021/08/09 04:45:32;;;;;;;2.17;1.75;;;;;;;11.09;50.66;95583.84;5008140;28;20030;-61
2021/08/09 04:47:57;;;;;;;2.03;1.38;;;;;;;10.98;51.53;95569.91;5008339;28;20038;-61
2021/08/09 04:50:23;;;;;;;2.42;1.60;;;;;;;11.06;51.19;95571.69;5007951;28;20482;-62
2021/08/09 04:52:48;;;;;;;2.35;1.40;;;;;;;11.06;50.73;95569.03;5011873;28;20042;-62
2021/08/09 04:55:14;;;;;;;1.73;1.38;;;;;;;11.17;50.42;95577.59;5012080;28;20052;-62
2021/08/09 04:57:39;;;;;;;2.70;1.52;;;;;;;11.13;50.72;95582.47;5011410;28;20041;-62
2021/08/09 05:00:06;;;;;;;2.28;1.63;;;;;;;11.15;50.81;95582.28;5011735;28;20538;-62
2021/08/09 05:02:31;;;;;;;1.65;1.17;;;;;;;11.25;50.49;95585.47;5011863;28;20124;-62
2021/08/09 05:04:58;;;;;;;1.90;1.27;;;;;;;11.30;50.30;95588.44;5010394;28;20057;-62
2021/08/09 05:07:23;;;;;;;2.08;1.50;;;;;;;11.29;50.66;95584.09;5011963;28;20099;-62
2021/08/09 05:09:49;;;;;;;1.40;1.30;;;;;;;11.41;50.42;95583.66;5011037;28;20571;-62
2021/08/09 05:12:14;;;;;;;2.47;1.02;;;;;;;11.49;49.92;95581.72;5009791;28;20113;-62
2021/08/09 05:14:40;;;;;;;2.67;1.30;;;;;;;11.52;49.92;95591.19;5003578;28;20217;-62
2021/08/09 05:17:06;;;;;;;1.60;1.45;;;;;;;11.57;50.32;95591.47;5008076;28;20110;-62
2021/08/09 05:19:31;;;;;;;1.95;1.40;;;;;;;11.70;49.63;95592.66;5008194;28;20082;-62
2021/08/09 05:21:57;;;;;;;1.85;1.33;;;;;;;11.81;48.99;95594.00;5007989;28;20044;-62
2021/08/09 05:24:22;;;;;;;3.50;1.55;;;;;;;11.82;49.38;95596.50;5008207;28;20116;-62
2021/08/09 05:26:47;;;;;;;2.55;1.50;;;;;;;11.97;48.99;95598.31;5008097;28;20065;-62
2021/08/09 05:29:13;;;;;;;3.47;1.63;;;;;;;12.15;48.59;95596.09;5007948;28;20092;-62
2021/08/09 05:31:39;;;;;;;2.70;1.33;;;;;;;12.32;48.06;95600.38;5005667;28;20057;-62
2021/08/09 05:34:04;;;;;;;1.48;1.30;;;;;;;12.44;48.45;95598.03;5007003;28;20041;-62
2021/08/09 05:36:30;;;;;;;2.00;1.30;;;;;;;12.52;48.26;95600.56;5007870;28;20042;-62
2021/08/09 05:38:56;;;;;;;2.55;1.27;;;;;;;12.79;47.68;95606.16;5008206;28;20026;-62
2021/08/09 05:41:21;;;;;;;2.25;1.10;;;;;;;12.93;47.06;95617.78;5006798;28;20038;-65
2021/08/09 05:43:47;;;;;;;2.85;1.27;;;;;;;13.07;47.39;95601.88;5007441;28;20029;-62
2021/08/09 05:46:12;;;;;;;2.78;1.33;;;;;;;13.24;46.83;95603.22;5006314;28;20033;-62
2021/08/09 05:48:37;;;;;;;2.25;1.30;;;;;;;13.35;45.76;95617.91;5007584;28;20472;-62
2021/08/09 05:51:03;;;;;;;1.42;1.33;;;;;;;13.33;46.28;95606.59;5007897;28;20041;-62
2021/08/09 05:53:30;;;;;;;1.77;1.25;;;;;;;13.63;45.49;95611.69;5005821;28;20518;-63
2021/08/09 05:55:55;;;;;;;3.90;1.50;;;;;;;13.68;45.61;95603.06;5003071;28;20072;-62
2021/08/09 05:58:21;;;;;;;2.72;1.40;;;;;;;13.83;45.46;95611.78;5004960;28;20033;-62
2021/08/09 06:00:46;;;;;;;2.03;1.33;;;;;;;14.19;44.77;95617.09;4996847;28;20041;-62
2021/08/09 06:03:16;;;;;;;3.10;1.42;;;;;;;14.10;43.43;95611.09;5000671;28;20034;-62
2021/08/09 06:05:42;;;;;;;2.90;1.40;;;;;;;14.04;44.83;95614.59;5001323;28;20404;-62
2021/08/09 06:08:07;;;;;;;3.63;1.38;;;;;;;14.10;44.92;95611.09;5004503;28;20057;-62
2021/08/09 06:10:32;;;;;;;2.75;1.50;;;;;;;14.19;44.02;95617.94;5003305;28;20030;-62
2021/08/09 06:12:58;;;;;;;3.20;1.42;;;;;;;13.47;45.00;95614.69;5004245;28;20034;-62
2021/08/09 06:15:23;;;;;;;3.97;1.40;;;;;;;13.81;45.05;95618.38;5002723;28;20045;-62
2021/08/09 06:17:49;;;;;;;6.53;2.85;;;;;;;13.90;45.07;95614.53;5001134;28;20068;-62
2021/08/09 06:20:14;;;;;;;6.38;4.18;;;;;;;14.11;44.80;95614.59;5003743;28;20120;-62
2021/08/09 06:22:40;;;;;;;6.68;3.90;;;;;;;14.35;43.91;95626.63;5004234;28;20025;-62
2021/08/09 06:25:06;;;;;;;5.15;2.10;;;;;;;14.67;43.88;95624.22;5003755;28;20371;-62
2021/08/09 06:27:31;;;;;;;3.47;1.52;;;;;;;14.84;43.16;95622.00;5002057;28;20041;-62
2021/08/09 06:29:57;;;;;;;5.65;1.52;;;;;;;14.94;42.97;95626.94;5004019;28;20049;-62
2021/08/09 06:32:24;;;;;;;6.45;3.15;;;;;;;14.86;43.10;95621.81;5001620;28;20099;-62
2021/08/09 06:34:49;;;;;;;3.67;2.60;;;;;;;14.95;43.60;95623.25;5004155;28;20030;-62
2021/08/09 06:37:15;;;;;;;9.15;5.25;;;;;;;14.93;42.98;95627.97;5003972;28;20045;-62
2021/08/09 06:39:40;;;;;;;10.98;5.40;;;;;;;14.87;42.95;95623.44;5003606;28;20640;-62
2021/08/09 06:42:06;;;;;;;7.90;4.55;;;;;;;15.08;42.79;95624.25;5002252;28;20037;-62
2021/08/09 06:44:32;;;;;;;8.32;5.80;;;;;;;15.15;42.02;95622.41;5003426;28;20495;-62
2021/08/09 06:46:58;;;;;;;12.05;7.70;;;;;;;15.06;42.47;95623.66;5004336;28;20044;-62
2021/08/09 06:49:23;;;;;;;3.97;2.60;;;;;;;15.26;41.59;95622.81;5003560;28;20065;-62
2021/08/09 06:51:49;;;;;;;9.05;6.43;;;;;;;15.01;42.69;95631.47;5003503;28;20029;-62
2021/08/09 06:54:14;;;;;;;7.25;4.15;;;;;;;15.40;42.22;95626.31;5004179;28;20226;-62
2021/08/09 06:56:40;;;;;;;5.68;2.95;;;;;;;15.69;41.80;95626.88;5003666;28;20224;-62
2021/08/09 06:59:05;;;;;;;3.22;2.25;;;;;;;15.79;40.87;95627.28;5003826;28;20608;-62
2021/08/09 07:01:31;;;;;;;5.85;3.97;;;;;;;15.83;41.12;95622.31;5003195;28;20113;-62
2021/08/09 07:03:56;;;;;;;9.75;6.35;;;;;;;15.83;41.29;95625.81;5003754;28;20110;-62
2021/08/09 07:06:23;;;;;;;6.00;2.60;;;;;;;15.89;40.75;95621.47;5003275;28;20088;-62
2021/08/09 07:08:51;;;;;;;5.72;3.80;;;;;;;15.86;41.14;95630.78;4985789;28;20591;-61
2021/08/09 07:11:16;;;;;;;4.57;2.13;;;;;;;15.73;41.08;95626.25;5001765;28;20082;-62
2021/08/09 07:13:42;;;;;;;2.72;1.33;;;;;;;15.72;40.59;95624.63;5001600;28;20144;-62
2021/08/09 07:16:07;;;;;;;6.43;4.20;;;;;;;15.86;41.20;95638.00;4997082;28;20188;-62
2021/08/09 07:18:33;;;;;;;4.65;2.88;;;;;;;15.95;41.53;95636.72;5003880;28;20078;-62
2021/08/09 07:20:59;;;;;;;9.70;5.53;;;;;;;15.73;41.34;95638.84;5002541;28;20102;-61
2021/08/09 07:23:25;;;;;;;2.45;1.67;;;;;;;15.88;40.96;95633.25;5002461;28;20082;-62
2021/08/09 07:25:50;;;;;;;7.90;4.63;;;;;;;16.31;40.12;95641.75;5002111;28;20098;-62
2021/08/09 07:28:15;;;;;;;3.75;1.40;;;;;;;16.21;39.75;95645.72;5003172;28;20118;-62
2021/08/09 07:30:41;;;;;;;4.32;1.63;;;;;;;14.69;42.83;95656.16;5002853;28;20098;-62
2021/08/09 07:33:06;;;;;;;3.25;2.13;;;;;;;15.57;42.30;95645.50;5003693;28;20110;-62
2021/08/09 07:35:33;;;;;;;5.93;1.63;;;;;;;15.34;41.67;95652.09;5002753;28;20076;-62
2021/08/09 07:37:58;;;;;;;3.35;1.40;;;;;;;16.44;40.34;95641.72;5003852;28;20471;-62
2021/08/09 07:40:24;;;;;;;4.57;2.60;;;;;;;16.16;40.47;95645.53;5002984;28;20209;-62
2021/08/09 07:42:49;;;;;;;3.00;1.70;;;;;;;14.64;43.44;95645.22;5003197;28;20034;-62
2021/08/09 07:45:14;;;;;;;2.40;1.20;;;;;;;15.61;41.98;95646.75;5001962;28;20037;-62
2021/08/09 07:47:40;;;;;;;8.07;1.77;;;;;;;15.77;41.16;95644.63;4999917;28;20045;-62
2021/08/09 07:50:06;;;;;;;4.05;1.52;;;;;;;14.21;45.52;95650.66;5003247;28;20048;-62
2021/08/09 07:52:31;;;;;;;9.50;6.25;;;;;;;15.06;43.97;95640.56;5002836;28;20585;-62
2021/08/09 07:54:56;;;;;;;9.05;4.10;;;;;;;15.98;41.87;95630.91;5003147;28;20032;-63
2021/08/09 07:57:22;;;;;;;5.22;1.70;;;;;;;16.05;41.47;95640.81;5002440;28;20041;-62
2021/08/09 07:59:47;;;;;;;4.93;2.17;;;;;;;16.02;40.75;95647.44;4983176;28;20137;-62
2021/08/09 08:02:13;;;;;;;3.63;1.58;;;;;;;16.25;40.65;95636.19;4999774;28;20449;-62
2021/08/09 08:04:42;;;;;;;10.60;6.70;;;;;;;16.54;39.99;95630.50;5001222;28;20120;-62
2021/08/09 08:07:08;;;;;;;3.67;1.60;;;;;;;16.00;41.89;95644.13;5001751;28;20395;-62
2021/08/09 08:09:33;;;;;;;4.32;2.40;;;;;;;14.48;45.52;95643.75;5001978;28;20053;-62
2021/08/09 08:12:01;;;;;;;5.43;2.05;;;;;;;15.53;43.06;95644.25;5002180;28;20698;-62
2021/08/09 08:14:27;;;;;;;7.93;3.53;;;;;;;15.69;41.98;95637.63;5001504;28;20282;-62
2021/08/09 08:16:52;;;;;;;4.80;2.90;;;;;;;15.60;42.76;95626.28;5003095;28;20045;-61
2021/08/09 08:19:17;;;;;;;4.95;1.75;;;;;;;15.78;42.26;95630.19;5002976;28;20030;-62
2021/08/09 08:21:43;;;;;;;12.18;8.40;;;;;;;16.13;42.21;95621.78;5001264;28;20038;-62
2021/08/09 08:24:08;;;;;;;6.13;2.67;;;;;;;15.39;43.83;95630.84;5001360;28;20049;-62
2021/08/09 08:26:34;;;;;;;3.63;2.08;;;;;;;16.23;41.30;95619.47;5006274;28;20087;-62
2021/08/09 08:28:59;;;;;;;4.68;1.88;;;;;;;16.64;41.67;95628.16;5005657;28;20037;-62
2021/08/09 08:31:25;;;;;;;6.78;2.22;;;;;;;16.29;42.39;95627.69;5006439;28;20029;-62
2021/08/09 08:33:50;;;;;;;7.13;1.67;;;;;;;14.61;43.16;95634.94;5004633;28;20698;-62
2021/08/09 08:36:15;;;;;;;4.20;1.50;;;;;;;16.00;42.30;95628.88;5004737;28;20057;-62
2021/08/09 08:38:41;;;;;;;3.92;1.75;;;;;;;16.66;40.52;95645.94;5010146;28;20042;-62
2021/08/09 08:41:06;;;;;;;2.72;1.40;;;;;;;15.96;40.63;95642.91;5010069;28;20037;-62
2021/08/09 08:43:32;;;;;;;4.47;2.17;;;;;;;15.41;42.38;95641.38;5011818;28;20064;-61
2021/08/09 08:46:02;;;;;;;7.18;4.10;;;;;;;16.42;40.72;95640.28;5010688;28;20030;-62
2021/08/09 08:48:29;;;;;;;5.10;1.60;;;;;;;16.70;39.00;95645.28;4994678;28;20038;-62
2021/08/09 08:50:58;;;;;;;4.50;2.42;;;;;;;15.79;42.68;95638.03;5008487;28;20578;-61
2021/08/09 08:53:27;;;;;;;4.00;1.38;;;;;;;16.43;41.15;95637.38;5006367;28;20057;-62
2021/08/09 08:55:53;;;;;;;5.00;1.60;;;;;;;17.07;39.56;95638.41;5004997;28;20444;-61
2021/08/09 08:58:18;;;;;;;4.63;1.85;;;;;;;17.13;38.69;95640.22;5001945;28;20108;-62
2021/08/09 09:00:44;;;;;;;6.43;1.70;;;;;;;16.62;40.69;95654.41;5003931;28;20509;-62
2021/08/09 09:03:19;;;;;;;7.78;4.30;;;;;;;16.70;39.66;95641.75;4983593;28;20026;-61
2021/08/09 09:06:06;;;;;;;6.30;1.48;;;;;;;16.24;41.43;95647.97;5004222;28;20042;-62
2021/08/09 09:08:36;;;;;;;;;;;;;;;15.34;42.41;95657.47;5005891;28;20062;-62
2021/08/09 09:11:01;;;;;;;2.97;1.60;;;;;;;16.79;38.66;95653.09;5005086;28;19933;-62
2021/08/09 09:13:27;;;;;;;3.25;1.63;;;;;;;16.75;39.24;95645.44;5001104;28;20041;-62
2021/08/09 09:15:56;;;;;;;3.65;1.80;;;;;;;17.25;39.00;95659.19;5002702;28;20057;-62
2021/08/09 09:18:22;;;;;;;2.92;1.42;;;;;;;17.61;38.37;95656.78;5005546;28;20442;-62
2021/08/09 09:20:47;;;;;;;4.90;2.63;;;;;;;17.98;37.80;95654.16;5004763;28;20053;-62
2021/08/09 09:23:17;;;;;;;5.63;1.75;;;;;;;17.68;38.00;95660.25;5000568;28;20042;-62
2021/08/09 09:25:47;;;;;;;4.47;1.50;;;;;;;18.51;37.06;95654.53;5003310;28;20476;-62
2021/08/09 09:28:34;;;;;;;2.33;1.45;;;;;;;16.53;38.42;95663.78;5005130;28;20183;-61
2021/08/09 09:31:07;;;;;;;2.75;1.70;;;;;;;17.05;36.82;95664.69;5000162;28;20521;-62
2021/08/09 09:33:32;;;;;;;3.13;1.30;;;;;;;15.85;39.83;95668.56;5005256;28;20042;-62
2021/08/09 09:36:04;;;;;;;3.28;1.60;;;;;;;16.86;37.91;95661.94;5005262;28;20034;-62
2021/08/09 09:38:42;;;;;;;1.92;1.15;;;;;;;17.13;38.03;95661.75;5004088;28;20037;-62
2021/08/09 09:41:08;;;;;;;2.88;1.60;;;;;;;16.32;38.73;95664.88;5004453;28;20038;-62
2021/08/09 09:43:38;;;;;;;3.75;1.65;;;;;;;15.92;38.45;95658.63;5002679;28;20055;-62
2021/08/09 09:46:03;;;;;;;6.85;1.50;;;;;;;16.04;38.85;95668.72;5002873;28;20056;-62
2021/08/09 09:48:36;;;;;;;3.90;1.90;;;;;;;15.69;39.47;95664.47;5004221;28;20037;-62
2021/08/09 09:51:28;;;;;;;4.60;1.40;;;;;;;15.86;38.68;95654.09;5004995;28;20101;-61
2021/08/09 09:53:53;;;;;;;5.38;1.80;;;;;;;14.97;41.12;95660.56;4994818;28;20099;-62
2021/08/09 09:56:22;;;;;;;2.63;1.50;;;;;;;16.29;38.74;95659.94;5004610;28;20042;-62
2021/08/09 09:58:47;;;;;;;3.83;1.60;;;;;;;15.75;39.82;95651.00;4996036;28;20570;-62
2021/08/09 10:01:13;;;;;;;3.60;1.38;;;;;;;16.11;38.99;95662.28;5000634;28;20034;-62
2021/08/09 10:03:39;;;;;;;3.72;1.60;;;;;;;14.89;40.25;95677.66;5003946;28;20088;-61
2021/08/09 10:06:05;;;;;;;6.22;1.63;;;;;;;16.09;38.56;95647.41;5004529;28;20057;-62
2021/08/09 10:08:43;;;;;;;3.50;1.60;;;;;;;16.64;37.07;95651.50;5003256;28;20084;-62
2021/08/09 10:11:09;;;;;;;5.60;1.92;;;;;;;15.86;37.80;95662.16;5003113;28;20496;-62
2021/08/09 10:13:36;;;;;;;2.78;1.52;;;;;;;16.21;37.94;95658.31;4996745;28;20049;-62
2021/08/09 10:16:03;;;;;;;5.65;1.80;;;;;;;16.01;36.96;95669.94;5001874;28;20556;-61
2021/08/09 10:18:29;;;;;;;;;;;;;;;16.30;36.88;95648.16;5003901;28;20542;-62
2021/08/09 10:20:56;;;;;;;6.00;1.85;;;;;;;16.33;38.12;95647.72;5003559;28;19917;-62
2021/08/09 10:23:36;;;;;;;4.55;1.90;;;;;;;17.18;37.22;95648.47;5003259;28;20030;-62
2021/08/09 10:26:01;;;;;;;7.07;2.10;;;;;;;17.94;36.17;95644.06;4998827;28;20077;-62
2021/08/09 10:28:40;;;;;;;3.30;1.58;;;;;;;18.08;38.97;95652.81;4983454;28;20038;-62
2021/08/09 10:31:22;;;;;;;5.68;1.63;;;;;;;17.53;36.94;95653.34;4987585;28;20030;-62
2021/08/09 10:33:48;;;;;;;3.85;1.67;;;;;;;16.32;37.25;95654.16;5001208;28;20045;-62
2021/08/09 10:36:17;;;;;;;7.18;1.83;;;;;;;16.81;38.11;95665.25;5004057;28;20060;-62
2021/08/09 10:38:44;;;;;;;1.60;1.17;;;;;;;16.05;38.32;95662.31;5003060;28;20034;-62
2021/08/09 10:41:09;;;;;;;8.30;2.17;;;;;;;15.46;39.41;95679.09;5003179;28;20389;-62
2021/08/09 10:43:55;;;;;;;3.20;1.20;;;;;;;14.51;39.66;95691.56;5004202;28;20099;-61
2021/08/09 10:46:37;;;;;;;6.22;1.90;;;;;;;14.65;39.53;95665.66;4996216;28;20307;-61
2021/08/09 10:49:03;;;;;;;4.15;1.80;;;;;;;16.42;37.65;95659.88;5000857;28;20149;-62
2021/08/09 10:51:50;;;;;;;3.10;1.88;;;;;;;14.87;39.45;95670.84;5003134;28;20180;-62
2021/08/09 10:54:26;;;;;;;4.00;1.65;;;;;;;15.81;38.35;95667.34;5003832;28;20060;-62
2021/08/09 10:56:51;;;;;;;4.10;1.52;;;;;;;16.20;39.03;95660.19;4995606;28;20053;-64
2021/08/09 10:59:40;;;;;;;5.28;2.42;;;;;;;16.92;37.14;95658.34;5003270;28;20025;-62
2021/08/09 11:02:13;;;;;;;3.38;1.50;;;;;;;17.30;35.96;95661.22;5001399;28;20411;-62
2021/08/09 11:04:39;;;;;;;3.03;1.55;;;;;;;17.75;35.10;95669.06;4996263;28;20357;-62
2021/08/09 11:07:17;;;;;;;4.97;1.55;;;;;;;17.57;33.42;95663.66;4979607;28;20086;-62
2021/08/09 11:09:44;;;;;;;5.35;1.70;;;;;;;17.09;36.00;95668.56;5000867;28;20050;-62
2021/08/09 11:12:11;;;;;;;3.60;1.65;;;;;;;16.48;36.30;95672.47;5002065;28;20042;-62
2021/08/09 11:17:27;;;;;;;3.10;1.70;;;;;;;15.78;36.63;95673.13;5000063;28;20554;-62
2021/08/09 11:19:52;;;;;;;5.45;1.60;;;;;;;15.52;37.63;95689.03;5001222;28;20415;-63
2021/08/09 11:22:19;;;;;;;3.17;1.48;;;;;;;15.38;37.98;95684.69;5004119;28;20092;-62
2021/08/09 11:24:44;;;;;;;7.57;2.03;;;;;;;15.56;37.91;95681.41;5005381;28;20106;-62
2021/08/09 11:27:10;;;;;;;4.65;1.70;;;;;;;15.54;37.00;95678.88;5006099;28;20086;-62
2021/08/09 11:29:59;;;;;;;4.25;1.60;;;;;;;15.43;37.14;95693.78;5004810;28;20248;-62
2021/08/09 11:32:44;;;;;;;3.40;1.65;;;;;;;16.07;36.69;95670.97;4997522;28;20045;-62
2021/08/09 11:35:10;;;;;;;2.28;1.40;;;;;;;15.68;37.68;95673.56;5001032;28;20197;-62
2021/08/09 11:37:54;;;;;;;4.72;1.70;;;;;;;16.09;36.47;95676.97;5005072;28;20578;-62